DEDCM EDDN-EDDN

Flight info

Callsign DEDCM
Flight time 0h 37m
Altitude 1000
Route VFR PLATZRUNDEN
Aircraft C152/L-SDF/L

Departure

Time 2026-05-07 13:33
Airport Nuremberg Airport (EDDN)

Arrival

Time 2026-05-07 14:10
Airport Nuremberg Airport (EDDN)
Time Latitude Longitude Altitude Speed Heading
2026-05-07 13:23 49.49432 11.06881 1016 ft 0 kts 278°
2026-05-07 13:28 49.49434 11.06876 1017 ft 2 kts 332°
2026-05-07 13:28 49.49454 11.06914 1018 ft 4 kts 51°
2026-05-07 13:28 49.49478 11.06918 1019 ft 4 kts
2026-05-07 13:28 49.49515 11.06926 1019 ft 9 kts
2026-05-07 13:29 49.49521 11.06992 1019 ft 7 kts 103°
2026-05-07 13:29 49.49510 11.07115 1019 ft 17 kts 97°
2026-05-07 13:29 49.49558 11.07203 1020 ft 12 kts
2026-05-07 13:29 49.49639 11.07246 1021 ft 10 kts 88°
2026-05-07 13:30 49.49625 11.07385 1021 ft 16 kts 101°
2026-05-07 13:30 49.49607 11.07572 1023 ft 19 kts 97°
2026-05-07 13:30 49.49596 11.07744 1024 ft 12 kts 59°
2026-05-07 13:30 49.49661 11.07771 1025 ft 7 kts 350°
2026-05-07 13:31 49.49693 11.07753 1026 ft 5 kts 334°
2026-05-07 13:31 49.49748 11.07710 1027 ft 6 kts 332°
2026-05-07 13:31 49.49779 11.07687 1026 ft 1 kts 334°
2026-05-07 13:31 49.49813 11.07659 1026 ft 13 kts 332°
2026-05-07 13:32 49.49895 11.07570 1026 ft 22 kts 281°
2026-05-07 13:32 49.49947 11.07060 1017 ft 71 kts 279°
2026-05-07 13:32 49.50015 11.06312 1171 ft 71 kts 278°
2026-05-07 13:32 49.49866 11.05652 1351 ft 68 kts 217°
2026-05-07 13:33 49.49423 11.05366 1522 ft 69 kts 191°
2026-05-07 13:33 49.48935 11.05205 1681 ft 72 kts 192°
2026-05-07 13:33 49.48479 11.05389 1881 ft 70 kts 136°
2026-05-07 13:33 49.48270 11.06079 2014 ft 79 kts 105°
2026-05-07 13:34 49.48138 11.06962 2051 ft 93 kts 101°
2026-05-07 13:34 49.47924 11.08998 2090 ft 98 kts 98°
2026-05-07 13:34 49.47825 11.10017 2164 ft 95 kts 101°
2026-05-07 13:35 49.47742 11.11036 2155 ft 93 kts 82°
2026-05-07 13:35 49.48036 11.11797 2141 ft 79 kts 31°
2026-05-07 13:35 49.48530 11.12095 1973 ft 80 kts 18°
2026-05-07 13:35 49.49070 11.12333 1799 ft 78 kts 351°
2026-05-07 13:36 49.49412 11.11787 1574 ft 73 kts 300°
2026-05-07 13:36 49.49552 11.11142 1424 ft 63 kts 281°
2026-05-07 13:36 49.49618 11.10427 1299 ft 66 kts 278°
2026-05-07 13:36 49.49683 11.09781 1136 ft 62 kts 277°
2026-05-07 13:37 49.49743 11.09113 1040 ft 57 kts 278°
2026-05-07 13:37 49.49794 11.08582 1022 ft 60 kts 277°
2026-05-07 13:37 49.49870 11.07820 1089 ft 77 kts 279°
2026-05-07 13:37 49.49963 11.07033 1253 ft 75 kts 279°
2026-05-07 13:38 49.49894 11.06272 1446 ft 70 kts 225°
2026-05-07 13:38 49.49454 11.05990 1613 ft 74 kts 193°
2026-05-07 13:38 49.48904 11.05812 1723 ft 80 kts 193°
2026-05-07 13:38 49.48405 11.05891 1944 ft 74 kts 135°
2026-05-07 13:39 49.48224 11.06677 2030 ft 85 kts 103°
2026-05-07 13:39 49.48105 11.07637 2043 ft 97 kts 101°
2026-05-07 13:39 49.47973 11.08680 2041 ft 102 kts 102°
2026-05-07 13:39 49.47835 11.09723 2060 ft 102 kts 102°
2026-05-07 13:40 49.47619 11.10694 2137 ft 85 kts 133°
2026-05-07 13:40 49.47111 11.10887 2126 ft 81 kts 200°
2026-05-07 13:40 49.46709 11.10300 2093 ft 81 kts 251°
2026-05-07 13:40 49.46753 11.09495 2126 ft 77 kts 298°
2026-05-07 13:41 49.47191 11.09018 2087 ft 83 kts 348°
2026-05-07 13:41 49.47762 11.09228 2031 ft 87 kts 39°
2026-05-07 13:41 49.47984 11.10044 2045 ft 84 kts 97°
2026-05-07 13:41 49.47679 11.10762 2054 ft 82 kts 150°
2026-05-07 13:42 49.47122 11.10846 2033 ft 83 kts 200°
2026-05-07 13:42 49.46748 11.10262 2057 ft 78 kts 252°
2026-05-07 13:42 49.46798 11.09443 2056 ft 79 kts 297°
2026-05-07 13:42 49.47202 11.08966 2097 ft 75 kts 352°
2026-05-07 13:43 49.47668 11.09283 2101 ft 78 kts 50°
2026-05-07 13:43 49.47798 11.10094 2079 ft 81 kts 104°
2026-05-07 13:43 49.47437 11.10725 2063 ft 83 kts 157°
2026-05-07 13:43 49.46880 11.10720 2038 ft 82 kts 206°
2026-05-07 13:44 49.46496 11.10085 1997 ft 82 kts 253°
2026-05-07 13:44 49.46595 11.09258 1982 ft 82 kts 304°
2026-05-07 13:44 49.47066 11.08805 1959 ft 83 kts 351°
2026-05-07 13:44 49.47611 11.09057 1939 ft 85 kts 40°
2026-05-07 13:45 49.47896 11.09830 1951 ft 82 kts 83°
2026-05-07 13:45 49.47734 11.10655 1935 ft 82 kts 129°
2026-05-07 13:45 49.47290 11.11120 1983 ft 77 kts 165°
2026-05-07 13:45 49.46776 11.11090 2017 ft 73 kts 206°
2026-05-07 13:46 49.46409 11.10566 2028 ft 73 kts 243°
2026-05-07 13:46 49.46352 11.09813 2047 ft 73 kts 282°
2026-05-07 13:46 49.46591 11.09118 2060 ft 73 kts 315°
2026-05-07 13:46 49.47054 11.08788 2072 ft 76 kts 350°
2026-05-07 13:47 49.47580 11.08890 2080 ft 79 kts 25°
2026-05-07 13:47 49.47953 11.09469 2094 ft 78 kts 68°
2026-05-07 13:47 49.47902 11.10263 2118 ft 78 kts 121°
2026-05-07 13:47 49.47482 11.10781 2108 ft 80 kts 164°
2026-05-07 13:48 49.46960 11.10686 2110 ft 78 kts 214°
2026-05-07 13:48 49.46620 11.10052 2091 ft 79 kts 240°
2026-05-07 13:48 49.46356 11.09296 2042 ft 84 kts 244°
2026-05-07 13:48 49.46112 11.08467 1986 ft 84 kts 248°
2026-05-07 13:49 49.45888 11.07629 1938 ft 84 kts 243°
2026-05-07 13:49 49.45518 11.06979 1957 ft 79 kts 210°
2026-05-07 13:49 49.44985 11.06947 1953 ft 81 kts 158°
2026-05-07 13:49 49.44617 11.07570 1933 ft 81 kts 110°
2026-05-07 13:50 49.44683 11.08366 1953 ft 72 kts 37°
2026-05-07 13:50 49.45148 11.08814 1861 ft 80 kts 27°
2026-05-07 13:50 49.45642 11.09147 1848 ft 78 kts 21°
2026-05-07 13:50 49.46159 11.09455 1812 ft 79 kts 19°
2026-05-07 13:51 49.46658 11.09740 1817 ft 76 kts 19°
2026-05-07 13:51 49.47065 11.09349 1739 ft 75 kts 311°
2026-05-07 13:51 49.47535 11.09145 1735 ft 73 kts 22°
2026-05-07 13:51 49.47819 11.09757 1740 ft 73 kts 82°
2026-05-07 13:52 49.47712 11.10529 1736 ft 78 kts 121°
2026-05-07 13:52 49.47334 11.11102 1808 ft 79 kts 150°
2026-05-07 13:52 49.46809 11.11275 1933 ft 80 kts 191°
2026-05-07 13:52 49.46324 11.10864 2033 ft 80 kts 232°
2026-05-07 13:53 49.46230 11.10062 2146 ft 81 kts 289°
2026-05-07 13:53 49.46593 11.09400 2211 ft 88 kts 324°
2026-05-07 13:53 49.47166 11.09055 2211 ft 89 kts 354°
2026-05-07 13:53 49.47756 11.09306 2211 ft 89 kts 32°
2026-05-07 13:54 49.48135 11.10067 2171 ft 94 kts 76°
2026-05-07 13:54 49.48212 11.11053 2044 ft 88 kts 86°
2026-05-07 13:54 49.48391 11.11849 1918 ft 70 kts 34°
2026-05-07 13:54 49.48869 11.11953 1715 ft 74 kts
2026-05-07 13:55 49.49423 11.11810 1635 ft 81 kts 328°
2026-05-07 13:55 49.49578 11.11136 1485 ft 66 kts 270°
2026-05-07 13:55 49.49620 11.10469 1278 ft 63 kts 278°
2026-05-07 13:55 49.49690 11.09708 1135 ft 79 kts 279°
2026-05-07 13:56 49.49766 11.08940 1035 ft 65 kts 279°
2026-05-07 13:56 49.49827 11.08355 1024 ft 57 kts 277°
2026-05-07 13:56 49.49893 11.07613 1070 ft 76 kts 279°
2026-05-07 13:56 49.49977 11.06814 1198 ft 78 kts 279°
2026-05-07 13:57 49.49945 11.06030 1401 ft 71 kts 242°
2026-05-07 13:57 49.49524 11.05663 1513 ft 78 kts 192°
2026-05-07 13:57 49.49004 11.05497 1678 ft 76 kts 194°
2026-05-07 13:57 49.48497 11.05342 1832 ft 73 kts 179°
2026-05-07 13:58 49.48319 11.05987 1923 ft 81 kts 102°
2026-05-07 13:58 49.48146 11.06883 1933 ft 92 kts 106°
2026-05-07 13:58 49.48003 11.07840 1965 ft 96 kts 102°
2026-05-07 13:58 49.47864 11.08879 1947 ft 99 kts 103°
2026-05-07 13:59 49.47717 11.09912 1973 ft 99 kts 103°
2026-05-07 13:59 49.47577 11.10942 2040 ft 95 kts 99°
2026-05-07 13:59 49.47500 11.11957 2107 ft 89 kts 86°
2026-05-07 13:59 49.47765 11.12708 2008 ft 79 kts 38°
2026-05-07 14:00 49.48271 11.12866 1910 ft 79 kts 357°
2026-05-07 14:00 49.48824 11.12819 1791 ft 77 kts 352°
2026-05-07 14:00 49.49268 11.12456 1607 ft 73 kts 312°
2026-05-07 14:00 49.49471 11.11771 1487 ft 74 kts 284°
2026-05-07 14:01 49.49572 11.11021 1364 ft 63 kts 279°
2026-05-07 14:01 49.49633 11.10385 1213 ft 66 kts 276°
2026-05-07 14:01 49.49692 11.09655 1124 ft 68 kts 277°
2026-05-07 14:01 49.49753 11.09029 1034 ft 52 kts 279°
2026-05-07 14:02 49.49802 11.08544 1022 ft 55 kts 277°
2026-05-07 14:02 49.49870 11.07808 1059 ft 77 kts 278°
2026-05-07 14:02 49.49952 11.07016 1209 ft 74 kts 279°
2026-05-07 14:02 49.49926 11.06240 1381 ft 70 kts 235°
2026-05-07 14:03 49.49494 11.05878 1511 ft 75 kts 200°
2026-05-07 14:03 49.48989 11.05610 1625 ft 79 kts 197°
2026-05-07 14:03 49.48448 11.05461 1785 ft 76 kts 174°
2026-05-07 14:03 49.48024 11.05889 1949 ft 76 kts 117°
2026-05-07 14:04 49.47882 11.06746 1976 ft 90 kts 101°
2026-05-07 14:04 49.47763 11.07739 1937 ft 97 kts 100°
2026-05-07 14:04 49.47654 11.08784 1863 ft 100 kts 99°
2026-05-07 14:04 49.47554 11.09793 1917 ft 90 kts 99°
2026-05-07 14:05 49.47456 11.10705 1958 ft 83 kts 101°
2026-05-07 14:05 49.47330 11.11554 1984 ft 81 kts 105°
2026-05-07 14:05 49.47164 11.12383 2001 ft 81 kts 109°
2026-05-07 14:05 49.46999 11.13208 1997 ft 81 kts 104°
2026-05-07 14:06 49.46874 11.14063 2006 ft 80 kts 102°
2026-05-07 14:06 49.46776 11.14926 1979 ft 84 kts 99°
2026-05-07 14:06 49.46666 11.15832 1925 ft 90 kts 102°
2026-05-07 14:06 49.46517 11.16749 1901 ft 91 kts 105°
2026-05-07 14:07 49.46377 11.17693 1860 ft 82 kts 90°
2026-05-07 14:07 49.46689 11.18386 1897 ft 88 kts 25°
2026-05-07 14:07 49.47270 11.18719 1902 ft 92 kts 19°
2026-05-07 14:07 49.47886 11.18954 1932 ft 91 kts 359°
2026-05-07 14:08 49.48476 11.18652 1965 ft 91 kts 317°
2026-05-07 14:08 49.48843 11.17802 1881 ft 99 kts 292°
2026-05-07 14:08 49.49018 11.16774 1809 ft 99 kts 280°
2026-05-07 14:08 49.49128 11.15723 1680 ft 104 kts 278°
2026-05-07 14:09 49.49221 11.14605 1543 ft 105 kts 277°
2026-05-07 14:09 49.49318 11.13501 1435 ft 105 kts 278°
2026-05-07 14:09 49.49427 11.12394 1335 ft 105 kts 279°
2026-05-07 14:09 49.49536 11.11312 1225 ft 98 kts 278°
2026-05-07 14:10 49.49638 11.10292 1138 ft 93 kts 278°
2026-05-07 14:10 49.49717 11.09407 1065 ft 71 kts 278°
2026-05-07 14:10 49.49775 11.08772 1026 ft 47 kts 279°
2026-05-07 14:10 49.49833 11.08161 1022 ft 74 kts 278°
2026-05-07 14:11 49.49920 11.07355 1135 ft 76 kts 279°
2026-05-07 14:11 49.50001 11.06542 1255 ft 76 kts 279°
2026-05-07 14:11 49.49941 11.05757 1412 ft 75 kts 234°
2026-05-07 14:11 49.49479 11.05378 1526 ft 80 kts 199°
2026-05-07 14:12 49.48944 11.05112 1651 ft 81 kts 199°
2026-05-07 14:12 49.48414 11.04968 1832 ft 75 kts 163°
2026-05-07 14:12 49.48159 11.05637 1950 ft 79 kts 103°
2026-05-07 14:12 49.48021 11.06525 1999 ft 88 kts 104°
2026-05-07 14:13 49.47890 11.07447 2098 ft 89 kts 101°
2026-05-07 14:13 49.47768 11.08455 2048 ft 99 kts 101°
2026-05-07 14:13 49.47616 11.09480 2064 ft 99 kts 103°
2026-05-07 14:13 49.47460 11.10492 2040 ft 103 kts 105°
2026-05-07 14:14 49.47273 11.11545 2040 ft 101 kts 106°
2026-05-07 14:14 49.47080 11.12602 2004 ft 103 kts 105°
2026-05-07 14:14 49.46897 11.13641 2007 ft 100 kts 105°
2026-05-07 14:14 49.46722 11.14690 1963 ft 104 kts 105°
2026-05-07 14:15 49.46533 11.15742 1976 ft 101 kts 106°
2026-05-07 14:15 49.46534 11.16744 2091 ft 92 kts 63°
2026-05-07 14:15 49.47038 11.17305 2142 ft 92 kts
2026-05-07 14:15 49.47706 11.17342 2081 ft 99 kts
2026-05-07 14:16 49.48406 11.17374 2036 ft 99 kts 353°
2026-05-07 14:16 49.48953 11.16978 2163 ft 83 kts 296°
2026-05-07 14:16 49.49102 11.16057 2051 ft 93 kts 281°
2026-05-07 14:16 49.49222 11.15074 1958 ft 94 kts 281°
2026-05-07 14:17 49.49321 11.14086 1855 ft 95 kts 278°
2026-05-07 14:17 49.49393 11.13162 1716 ft 79 kts 278°
2026-05-07 14:17 49.49447 11.12346 1561 ft 77 kts 276°
2026-05-07 14:17 49.49508 11.11568 1402 ft 72 kts 279°
2026-05-07 14:18 49.49586 11.10837 1242 ft 66 kts 279°
2026-05-07 14:18 49.49661 11.10003 1157 ft 88 kts 278°
2026-05-07 14:18 49.49741 11.09193 1047 ft 65 kts 279°
2026-05-07 14:18 49.49800 11.08627 1022 ft 47 kts 277°
2026-05-07 14:19 49.49861 11.07952 1028 ft 77 kts 278°
2026-05-07 14:19 49.49919 11.07116 1133 ft 74 kts 264°
2026-05-07 14:19 49.49598 11.06651 1261 ft 74 kts 197°
2026-05-07 14:19 49.49096 11.06483 1410 ft 73 kts 191°
2026-05-07 14:20 49.48625 11.06321 1575 ft 71 kts 196°
2026-05-07 14:20 49.48154 11.06398 1699 ft 75 kts 130°
2026-05-07 14:20 49.48085 11.07188 1817 ft 76 kts 90°
2026-05-07 14:20 49.48095 11.08003 1941 ft 77 kts 91°
2026-05-07 14:21 49.48078 11.08854 2030 ft 82 kts 92°
2026-05-07 14:21 49.48030 11.09770 2074 ft 90 kts 98°
2026-05-07 14:21 49.47923 11.10715 2164 ft 87 kts 103°
2026-05-07 14:21 49.47772 11.11643 2226 ft 92 kts 104°
2026-05-07 14:22 49.47714 11.12569 2344 ft 79 kts 77°
2026-05-07 14:22 49.48000 11.13209 2345 ft 74 kts 27°
2026-05-07 14:22 49.48517 11.13443 2181 ft 80 kts
2026-05-07 14:22 49.49034 11.13388 2033 ft 72 kts 329°
2026-05-07 14:23 49.49388 11.12832 1807 ft 74 kts 298°
2026-05-07 14:23 49.49517 11.12089 1623 ft 72 kts 275°
2026-05-07 14:23 49.49556 11.11321 1397 ft 73 kts 275°
2026-05-07 14:23 49.49602 11.10551 1230 ft 78 kts 275°
2026-05-07 14:24 49.49679 11.09648 1107 ft 86 kts 279°
2026-05-07 14:24 49.49770 11.08827 1030 ft 66 kts 280°
2026-05-07 14:24 49.49839 11.08152 1023 ft 73 kts 279°
2026-05-07 14:24 49.49912 11.07340 1109 ft 77 kts 276°
2026-05-07 14:25 49.49987 11.06536 1249 ft 72 kts 279°
2026-05-07 14:25 49.50076 11.05784 1387 ft 71 kts 280°
2026-05-07 14:25 49.50081 11.05089 1541 ft 60 kts 246°
2026-05-07 14:25 49.49724 11.04718 1619 ft 70 kts 206°